createdAt,value
2022-10-05T00:02:14.961Z,101160.38
2022-10-05T00:07:19.840Z,101153.44
2022-10-05T00:12:23.255Z,101151.69
2022-10-05T00:17:28.976Z,101151.69
2022-10-05T00:22:33.011Z,101151.69
2022-10-05T00:27:38.013Z,101149.03
2022-10-05T00:32:42.484Z,101136.00
2022-10-05T00:37:46.505Z,101143.81
2022-10-05T00:42:55.206Z,101141.22
2022-10-05T00:48:08.095Z,101141.25
2022-10-05T00:53:17.793Z,101156.84
2022-10-05T00:58:26.587Z,101164.66
2022-10-05T01:03:35.638Z,101156.03
2022-10-05T01:08:44.550Z,101151.72
2022-10-05T01:13:52.331Z,101149.06
2022-10-05T01:19:00.317Z,101154.25
2022-10-05T01:24:18.335Z,101154.22
2022-10-05T01:29:24.868Z,101150.78
2022-10-05T01:34:35.087Z,101149.06
2022-10-05T01:39:43.931Z,101149.91
2022-10-05T01:44:52.719Z,101143.03
2022-10-05T01:50:00.443Z,101143.91
2022-10-05T01:55:10.914Z,101152.53
2022-10-05T02:00:17.975Z,101160.31
2022-10-05T02:05:22.834Z,101168.19
2022-10-05T02:10:27.443Z,101165.63
2022-10-05T02:15:35.100Z,101155.16
2022-10-05T02:20:40.372Z,101138.63
2022-10-05T02:25:46.266Z,101127.41
2022-10-05T02:30:53.616Z,101103.13
2022-10-05T02:35:57.309Z,101092.72
2022-10-05T02:41:05.157Z,101116.19
2022-10-05T02:46:13.601Z,101110.13
2022-10-05T02:51:19.567Z,101115.34
2022-10-05T02:56:27.663Z,101108.47
2022-10-05T03:01:35.570Z,101113.72
2022-10-05T03:06:41.426Z,101118.91
2022-10-05T03:11:46.705Z,101137.13
2022-10-05T03:16:56.141Z,101144.03
2022-10-05T03:22:01.305Z,101139.69
2022-10-05T03:27:08.569Z,101152.66
2022-10-05T03:32:16.881Z,101156.09
2022-10-05T03:37:23.942Z,101149.16
2022-10-05T03:42:32.469Z,101140.47
2022-10-05T03:47:40.911Z,101136.13
2022-10-05T03:52:45.439Z,101119.69
2022-10-05T03:57:50.043Z,101126.66
2022-10-05T04:02:58.538Z,101126.66
2022-10-05T04:08:05.901Z,101119.72
2022-10-05T04:13:14.075Z,101116.28
2022-10-05T04:18:21.976Z,101113.75
2022-10-05T04:23:31.826Z,101115.47
2022-10-05T04:28:40.632Z,101113.72
2022-10-05T04:33:50.179Z,101122.41
2022-10-05T04:38:58.149Z,101125.88
2022-10-05T04:44:14.222Z,101131.94
2022-10-05T04:49:35.507Z,101144.09
2022-10-05T04:54:45.667Z,101135.44
2022-10-05T05:00:01.041Z,101132.00
2022-10-05T05:05:17.904Z,101130.25
2022-10-05T05:10:29.095Z,101142.38
2022-10-05T05:15:39.989Z,101154.53
2022-10-05T05:20:53.061Z,101150.19
2022-10-05T05:26:01.136Z,101146.69
2022-10-05T05:31:07.691Z,101151.88
2022-10-05T05:36:22.861Z,101148.41
2022-10-05T05:41:31.787Z,101157.06
2022-10-05T05:46:58.753Z,101130.19
2022-10-05T05:52:05.057Z,101144.94
2022-10-05T05:57:11.074Z,101150.13
2022-10-05T06:02:16.207Z,101152.69
2022-10-05T06:07:25.664Z,101144.03
2022-10-05T06:12:34.208Z,101161.41
2022-10-05T06:17:40.245Z,101154.38
2022-10-05T06:22:46.027Z,101143.06
2022-10-05T06:28:03.996Z,101143.94
2022-10-05T06:33:15.543Z,101130.94
2022-10-05T06:38:35.987Z,101143.06
2022-10-05T06:43:45.888Z,101146.53
2022-10-05T06:48:59.059Z,101155.19
2022-10-05T06:54:07.886Z,101159.50
2022-10-05T06:59:15.890Z,101172.50
2022-10-05T07:04:40.587Z,101167.31
2022-10-05T07:09:51.327Z,101159.44
2022-10-05T07:15:02.730Z,101157.63
2022-10-05T07:20:14.005Z,101156.63
2022-10-05T07:25:20.261Z,101145.41
2022-10-05T07:30:23.605Z,101142.72
2022-10-05T07:35:50.576Z,101139.16
2022-10-05T07:40:58.337Z,101144.25
2022-10-05T07:46:07.646Z,101134.53
2022-10-05T07:51:17.389Z,101130.97
2022-10-05T07:56:24.615Z,101119.53
2022-10-05T08:01:29.679Z,101125.56
2022-10-05T08:06:51.143Z,101126.50
2022-10-05T08:11:58.829Z,101122.09
2022-10-05T08:17:04.385Z,101116.69
2022-10-05T08:22:09.889Z,101114.94
2022-10-05T08:27:18.245Z,101105.22
2022-10-05T08:32:23.950Z,101097.78
2022-10-05T08:37:30.610Z,101089.00
2022-10-05T08:42:49.419Z,101094.00
2022-10-05T08:48:16.602Z,101104.22
2022-10-05T08:53:27.107Z,101092.81
2022-10-05T08:58:43.622Z,101095.34
2022-10-05T09:04:01.069Z,101088.97
2022-10-05T09:09:19.024Z,101069.59
2022-10-05T09:14:32.707Z,101068.44
2022-10-05T09:19:52.503Z,101061.97
2022-10-05T09:24:57.298Z,101045.28
2022-10-05T09:30:11.785Z,101050.41
2022-10-05T09:35:28.669Z,101055.41
2022-10-05T09:40:49.412Z,101055.16
2022-10-05T09:46:10.399Z,101034.94
2022-10-05T09:51:31.146Z,101048.53
2022-10-05T09:56:43.837Z,101043.91
2022-10-05T10:02:00.067Z,101045.88
2022-10-05T10:07:15.936Z,101060.28
2022-10-05T10:12:26.469Z,101061.53
2022-10-05T10:17:36.916Z,101056.34
2022-10-05T10:23:01.067Z,101067.00
2022-10-05T10:28:25.639Z,101059.13
2022-10-05T10:33:42.972Z,101055.53
2022-10-05T10:38:54.308Z,101056.94
2022-10-05T10:44:11.100Z,101031.53
2022-10-05T10:49:22.390Z,101014.06
2022-10-05T10:54:34.379Z,100999.03
2022-10-05T10:59:55.701Z,100993.06
2022-10-05T11:05:09.783Z,100995.06
2022-10-05T11:10:24.121Z,100987.31
2022-10-05T11:15:35.964Z,100983.50
2022-10-05T11:20:57.602Z,100995.16
2022-10-05T11:26:24.709Z,100987.50
2022-10-05T11:31:45.576Z,100988.09
2022-10-05T11:37:02.422Z,100964.84
2022-10-05T11:42:21.892Z,100974.91
2022-10-05T11:47:27.502Z,100975.34
2022-10-05T11:52:36.311Z,100962.91
2022-10-05T11:57:43.762Z,100964.00
2022-10-05T12:03:09.450Z,100977.34
2022-10-05T12:08:22.907Z,100967.06
2022-10-05T12:13:31.170Z,100968.91
2022-10-05T12:18:47.859Z,100974.34
2022-10-05T12:23:53.767Z,100967.22
2022-10-05T12:28:59.059Z,100965.72
2022-10-05T12:34:06.518Z,100956.59
2022-10-05T12:39:17.636Z,100962.91
2022-10-05T12:44:26.238Z,100966.47
2022-10-05T12:49:46.651Z,100960.88
2022-10-05T12:54:56.766Z,100960.22
2022-10-05T13:00:03.638Z,100964.13
2022-10-05T13:05:16.595Z,100960.69
2022-10-05T13:10:28.061Z,100968.28
2022-10-05T13:15:33.402Z,100965.13
2022-10-05T13:20:40.639Z,100967.75
2022-10-05T13:25:48.297Z,100965.41
2022-10-05T13:30:55.311Z,100964.56
2022-10-05T13:36:02.831Z,100964.84
2022-10-05T13:41:15.219Z,100950.47
2022-10-05T13:46:23.782Z,100966.59
2022-10-05T13:51:30.514Z,100965.50
2022-10-05T13:56:38.629Z,100966.75
2022-10-05T14:01:42.899Z,100968.72
2022-10-05T14:06:46.640Z,100950.56
2022-10-05T14:11:52.296Z,100941.16
2022-10-05T14:16:56.608Z,100935.16
2022-10-05T14:22:01.592Z,100938.00
2022-10-05T14:27:20.315Z,100938.13
2022-10-05T14:32:24.433Z,100939.16
2022-10-05T14:37:32.852Z,100934.09
2022-10-05T14:42:47.344Z,100936.00
2022-10-05T14:47:52.320Z,100931.69
2022-10-05T14:53:04.871Z,100938.75
2022-10-05T14:58:18.306Z,100932.66
2022-10-05T15:03:30.005Z,100932.03
2022-10-05T15:08:49.440Z,100936.47
2022-10-05T15:13:53.874Z,100920.13
2022-10-05T15:19:02.903Z,100922.06
2022-10-05T15:24:08.643Z,100919.63
2022-10-05T15:29:19.475Z,100932.84
2022-10-05T15:34:29.539Z,100917.06
2022-10-05T15:39:36.296Z,100901.59
2022-10-05T15:44:47.618Z,100906.94
2022-10-05T15:49:57.385Z,100901.00
2022-10-05T15:55:19.658Z,100920.47
2022-10-05T16:00:25.880Z,100913.47
2022-10-05T16:05:52.928Z,100899.53
2022-10-05T16:10:56.478Z,100910.94
2022-10-05T16:16:02.624Z,100907.53
2022-10-05T16:21:11.207Z,100896.38
2022-10-05T16:26:21.374Z,100880.78
2022-10-05T16:31:31.066Z,100897.47
2022-10-05T16:36:40.691Z,100879.09
2022-10-05T16:41:48.005Z,100878.25
2022-10-05T16:46:54.485Z,100876.69
2022-10-05T16:51:59.572Z,100886.53
2022-10-05T16:57:06.598Z,100876.00
2022-10-05T17:02:16.304Z,100876.00
2022-10-05T17:07:24.128Z,100883.13
2022-10-05T17:12:34.765Z,100891.81
2022-10-05T17:17:44.927Z,100885.66
2022-10-05T17:22:51.315Z,100890.09
2022-10-05T17:27:55.866Z,100888.44
2022-10-05T17:33:04.729Z,100893.75
2022-10-05T17:38:14.491Z,100878.09
2022-10-05T17:43:25.768Z,100869.63
2022-10-05T17:48:41.444Z,100870.44
2022-10-05T17:54:05.848Z,100874.84
2022-10-05T17:59:09.314Z,100868.09
2022-10-05T18:04:33.753Z,100868.00
2022-10-05T18:09:52.130Z,100868.09
2022-10-05T18:14:57.402Z,100866.59
2022-10-05T18:20:19.161Z,100865.72
2022-10-05T18:25:29.930Z,100860.47
2022-10-05T18:30:37.711Z,100866.66
2022-10-05T18:35:46.745Z,100860.53
2022-10-05T18:40:55.687Z,100867.63
2022-10-05T18:46:05.834Z,100875.47
2022-10-05T18:51:15.823Z,100865.88
2022-10-05T18:56:25.717Z,100874.72
2022-10-05T19:01:47.611Z,100877.38
2022-10-05T19:06:55.430Z,100876.59
2022-10-05T19:12:02.492Z,100862.75
2022-10-05T19:17:20.831Z,100860.19
2022-10-05T19:22:31.220Z,100860.22
2022-10-05T19:27:40.569Z,100858.47
2022-10-05T19:32:47.658Z,100854.25
2022-10-05T19:37:56.633Z,100858.56
2022-10-05T19:43:10.376Z,100862.13
2022-10-05T19:48:22.329Z,100873.47
2022-10-05T19:53:27.568Z,100868.31
2022-10-05T19:58:39.747Z,100863.97
2022-10-05T20:04:01.337Z,100868.53
2022-10-05T20:09:20.755Z,100870.28
2022-10-05T20:14:32.975Z,100872.88
2022-10-05T20:20:05.713Z,100882.47
2022-10-05T20:25:10.148Z,100886.03
2022-10-05T20:30:15.945Z,100884.41
2022-10-05T20:35:39.962Z,100892.41
2022-10-05T20:40:43.030Z,100882.88
2022-10-05T20:45:47.567Z,100883.00
2022-10-05T20:50:50.749Z,100884.88
2022-10-05T20:55:53.870Z,100891.00
2022-10-05T21:01:19.685Z,100887.66
2022-10-05T21:06:22.983Z,100901.72
2022-10-05T21:11:28.175Z,100901.75
2022-10-05T21:16:34.174Z,100908.81
2022-10-05T21:21:37.636Z,100905.44
2022-10-05T21:26:41.829Z,100909.00
2022-10-05T21:31:46.332Z,100909.09
2022-10-05T21:36:49.589Z,100908.31
2022-10-05T21:41:52.627Z,100917.97
2022-10-05T21:46:57.598Z,100919.75
2022-10-05T21:52:01.904Z,100920.75
2022-10-05T21:57:05.225Z,100923.50
2022-10-05T22:02:09.901Z,100913.13
2022-10-05T22:07:18.571Z,100923.63
2022-10-05T22:12:21.668Z,100914.09
2022-10-05T22:17:28.072Z,100917.59
2022-10-05T22:22:31.139Z,100924.72
2022-10-05T22:27:35.300Z,100921.34
2022-10-05T22:32:40.113Z,100920.38
2022-10-05T22:37:43.167Z,100918.78
2022-10-05T22:42:46.449Z,100915.44
2022-10-05T22:47:50.962Z,100918.03
2022-10-05T22:52:53.981Z,100926.84
2022-10-05T22:57:57.109Z,100930.44
2022-10-05T23:03:01.603Z,100926.16
2022-10-05T23:08:04.879Z,100936.69
2022-10-05T23:13:08.773Z,100939.38
2022-10-05T23:18:16.726Z,100936.91
2022-10-05T23:23:19.897Z,100935.22
2022-10-05T23:28:22.981Z,100947.44
2022-10-05T23:33:27.516Z,100950.16
2022-10-05T23:38:31.000Z,100955.50
2022-10-05T23:43:34.738Z,100952.91
2022-10-05T23:48:39.196Z,100953.84
2022-10-05T23:53:42.428Z,100940.78
2022-10-05T23:58:45.878Z,100951.25
